sensor_id;sensor_type;location;lat;lon;timestamp;P1;durP1;ratioP1;P2;durP2;ratioP2
28166;SDS011;15455;53.376;-6.262;2023-05-25T00:02:38;3.08;;;1.45;;
28166;SDS011;15455;53.376;-6.262;2023-05-25T00:05:24;1.10;;;0.82;;
28166;SDS011;15455;53.376;-6.262;2023-05-25T00:08:11;2.90;;;1.58;;
28166;SDS011;15455;53.376;-6.262;2023-05-25T00:10:56;2.42;;;1.23;;
28166;SDS011;15455;53.376;-6.262;2023-05-25T00:13:42;2.22;;;1.50;;
28166;SDS011;15455;53.376;-6.262;2023-05-25T00:16:27;2.17;;;0.95;;
28166;SDS011;15455;53.376;-6.262;2023-05-25T00:19:13;2.13;;;1.35;;
28166;SDS011;15455;53.376;-6.262;2023-05-25T00:21:59;1.45;;;1.10;;
28166;SDS011;15455;53.376;-6.262;2023-05-25T00:24:47;3.97;;;1.00;;
28166;SDS011;15455;53.376;-6.262;2023-05-25T00:27:33;1.33;;;1.05;;
28166;SDS011;15455;53.376;-6.262;2023-05-25T00:30:18;2.53;;;0.85;;
28166;SDS011;15455;53.376;-6.262;2023-05-25T00:33:04;2.47;;;1.05;;
28166;SDS011;15455;53.376;-6.262;2023-05-25T00:35:50;4.07;;;1.17;;
28166;SDS011;15455;53.376;-6.262;2023-05-25T00:38:38;2.75;;;1.20;;
28166;SDS011;15455;53.376;-6.262;2023-05-25T00:41:27;3.05;;;1.40;;
28166;SDS011;15455;53.376;-6.262;2023-05-25T00:44:13;5.75;;;1.60;;
28166;SDS011;15455;53.376;-6.262;2023-05-25T00:47:00;2.00;;;1.10;;
28166;SDS011;15455;53.376;-6.262;2023-05-25T00:49:51;2.05;;;1.20;;
28166;SDS011;15455;53.376;-6.262;2023-05-25T00:52:38;1.85;;;1.25;;
28166;SDS011;15455;53.376;-6.262;2023-05-25T00:55:24;2.05;;;1.15;;
28166;SDS011;15455;53.376;-6.262;2023-05-25T00:58:20;3.33;;;1.50;;
28166;SDS011;15455;53.376;-6.262;2023-05-25T01:01:08;5.75;;;1.80;;
28166;SDS011;15455;53.376;-6.262;2023-05-25T01:03:56;3.35;;;1.23;;
28166;SDS011;15455;53.376;-6.262;2023-05-25T01:06:49;2.15;;;1.52;;
28166;SDS011;15455;53.376;-6.262;2023-05-25T01:09:37;3.53;;;1.45;;
28166;SDS011;15455;53.376;-6.262;2023-05-25T01:12:28;1.63;;;1.35;;
28166;SDS011;15455;53.376;-6.262;2023-05-25T01:15:14;2.85;;;1.35;;
28166;SDS011;15455;53.376;-6.262;2023-05-25T01:18:00;2.97;;;1.17;;
28166;SDS011;15455;53.376;-6.262;2023-05-25T01:26:53;2.17;;;1.25;;
28166;SDS011;15455;53.376;-6.262;2023-05-25T01:29:43;2.03;;;1.48;;
28166;SDS011;15455;53.376;-6.262;2023-05-25T01:32:33;1.60;;;1.15;;
28166;SDS011;15455;53.376;-6.262;2023-05-25T01:35:21;6.00;;;1.40;;
28166;SDS011;15455;53.376;-6.262;2023-05-25T01:38:08;1.75;;;1.30;;
28166;SDS011;15455;53.376;-6.262;2023-05-25T01:40:56;2.42;;;1.38;;
28166;SDS011;15455;53.376;-6.262;2023-05-25T01:43:47;3.22;;;1.83;;
28166;SDS011;15455;53.376;-6.262;2023-05-25T01:49:58;2.47;;;1.75;;
28166;SDS011;15455;53.376;-6.262;2023-05-25T01:53:33;2.58;;;1.15;;
28166;SDS011;15455;53.376;-6.262;2023-05-25T01:56:21;1.52;;;1.33;;
28166;SDS011;15455;53.376;-6.262;2023-05-25T01:59:14;1.55;;;1.15;;
28166;SDS011;15455;53.376;-6.262;2023-05-25T02:02:03;4.40;;;1.35;;
28166;SDS011;15455;53.376;-6.262;2023-05-25T02:04:52;3.92;;;1.60;;
28166;SDS011;15455;53.376;-6.262;2023-05-25T02:07:41;2.88;;;1.58;;
28166;SDS011;15455;53.376;-6.262;2023-05-25T02:10:27;4.50;;;1.80;;
28166;SDS011;15455;53.376;-6.262;2023-05-25T02:13:19;2.75;;;1.35;;
28166;SDS011;15455;53.376;-6.262;2023-05-25T02:16:05;3.88;;;1.63;;
28166;SDS011;15455;53.376;-6.262;2023-05-25T02:18:52;2.03;;;1.30;;
28166;SDS011;15455;53.376;-6.262;2023-05-25T02:21:40;3.92;;;2.03;;
28166;SDS011;15455;53.376;-6.262;2023-05-25T02:24:28;3.40;;;1.42;;
28166;SDS011;15455;53.376;-6.262;2023-05-25T02:27:13;4.45;;;2.10;;
28166;SDS011;15455;53.376;-6.262;2023-05-25T02:30:03;4.68;;;1.60;;
28166;SDS011;15455;53.376;-6.262;2023-05-25T02:32:51;2.97;;;1.80;;
28166;SDS011;15455;53.376;-6.262;2023-05-25T02:35:38;3.80;;;1.85;;
28166;SDS011;15455;53.376;-6.262;2023-05-25T02:38:24;7.22;;;2.00;;
28166;SDS011;15455;53.376;-6.262;2023-05-25T02:41:10;5.45;;;2.00;;
28166;SDS011;15455;53.376;-6.262;2023-05-25T02:43:56;4.40;;;2.42;;
28166;SDS011;15455;53.376;-6.262;2023-05-25T02:46:43;7.82;;;1.67;;
28166;SDS011;15455;53.376;-6.262;2023-05-25T02:49:29;5.35;;;2.22;;
28166;SDS011;15455;53.376;-6.262;2023-05-25T02:52:15;5.55;;;2.17;;
28166;SDS011;15455;53.376;-6.262;2023-05-25T02:55:00;3.08;;;1.88;;
28166;SDS011;15455;53.376;-6.262;2023-05-25T02:57:53;3.40;;;1.85;;
28166;SDS011;15455;53.376;-6.262;2023-05-25T03:01:02;3.70;;;2.17;;
28166;SDS011;15455;53.376;-6.262;2023-05-25T03:03:53;3.67;;;1.88;;
28166;SDS011;15455;53.376;-6.262;2023-05-25T03:07:03;3.60;;;2.08;;
28166;SDS011;15455;53.376;-6.262;2023-05-25T03:10:44;4.75;;;1.85;;
28166;SDS011;15455;53.376;-6.262;2023-05-25T03:13:30;2.38;;;1.42;;
28166;SDS011;15455;53.376;-6.262;2023-05-25T03:16:31;3.60;;;1.90;;
28166;SDS011;15455;53.376;-6.262;2023-05-25T03:19:21;8.32;;;2.25;;
28166;SDS011;15455;53.376;-6.262;2023-05-25T03:22:23;4.18;;;1.98;;
28166;SDS011;15455;53.376;-6.262;2023-05-25T03:25:11;4.97;;;2.13;;
28166;SDS011;15455;53.376;-6.262;2023-05-25T03:27:57;6.78;;;2.45;;
28166;SDS011;15455;53.376;-6.262;2023-05-25T03:30:42;4.38;;;1.92;;
28166;SDS011;15455;53.376;-6.262;2023-05-25T03:33:28;6.22;;;2.90;;
28166;SDS011;15455;53.376;-6.262;2023-05-25T03:36:14;4.80;;;2.47;;
28166;SDS011;15455;53.376;-6.262;2023-05-25T03:39:01;2.28;;;1.98;;
28166;SDS011;15455;53.376;-6.262;2023-05-25T03:41:47;4.65;;;2.30;;
28166;SDS011;15455;53.376;-6.262;2023-05-25T03:44:34;6.20;;;1.73;;
28166;SDS011;15455;53.376;-6.262;2023-05-25T03:47:19;4.25;;;2.05;;
28166;SDS011;15455;53.376;-6.262;2023-05-25T03:50:05;3.50;;;2.35;;
28166;SDS011;15455;53.376;-6.262;2023-05-25T03:52:52;11.73;;;2.28;;
28166;SDS011;15455;53.376;-6.262;2023-05-25T03:55:37;5.88;;;1.92;;
28166;SDS011;15455;53.376;-6.262;2023-05-25T03:58:26;5.53;;;2.58;;
28166;SDS011;15455;53.376;-6.262;2023-05-25T04:01:22;10.65;;;3.05;;
28166;SDS011;15455;53.376;-6.262;2023-05-25T04:04:10;3.80;;;2.30;;
28166;SDS011;15455;53.376;-6.262;2023-05-25T04:07:04;6.38;;;2.33;;
28166;SDS011;15455;53.376;-6.262;2023-05-25T04:09:50;7.22;;;2.97;;
28166;SDS011;15455;53.376;-6.262;2023-05-25T04:12:37;5.72;;;2.50;;
28166;SDS011;15455;53.376;-6.262;2023-05-25T04:15:23;4.05;;;2.33;;
28166;SDS011;15455;53.376;-6.262;2023-05-25T04:18:21;5.40;;;2.88;;
28166;SDS011;15455;53.376;-6.262;2023-05-25T04:21:07;4.75;;;2.35;;
28166;SDS011;15455;53.376;-6.262;2023-05-25T04:23:52;5.20;;;2.60;;
28166;SDS011;15455;53.376;-6.262;2023-05-25T04:26:53;5.80;;;2.40;;
28166;SDS011;15455;53.376;-6.262;2023-05-25T04:29:49;8.35;;;2.75;;
28166;SDS011;15455;53.376;-6.262;2023-05-25T04:32:54;8.88;;;2.67;;
28166;SDS011;15455;53.376;-6.262;2023-05-25T04:36:12;5.53;;;2.58;;
28166;SDS011;15455;53.376;-6.262;2023-05-25T04:39:03;5.32;;;2.30;;
28166;SDS011;15455;53.376;-6.262;2023-05-25T04:41:53;7.15;;;2.60;;
28166;SDS011;15455;53.376;-6.262;2023-05-25T04:44:45;6.03;;;2.58;;
28166;SDS011;15455;53.376;-6.262;2023-05-25T04:47:31;5.35;;;2.60;;
28166;SDS011;15455;53.376;-6.262;2023-05-25T04:50:19;5.22;;;2.38;;
28166;SDS011;15455;53.376;-6.262;2023-05-25T04:53:04;9.90;;;2.35;;
28166;SDS011;15455;53.376;-6.262;2023-05-25T04:55:51;5.00;;;2.13;;
28166;SDS011;15455;53.376;-6.262;2023-05-25T04:58:36;4.32;;;2.15;;
28166;SDS011;15455;53.376;-6.262;2023-05-25T05:01:22;4.75;;;2.33;;
28166;SDS011;15455;53.376;-6.262;2023-05-25T05:04:13;4.18;;;2.20;;
28166;SDS011;15455;53.376;-6.262;2023-05-25T05:07:04;9.52;;;2.35;;
28166;SDS011;15455;53.376;-6.262;2023-05-25T05:09:49;11.73;;;2.58;;
28166;SDS011;15455;53.376;-6.262;2023-05-25T05:12:35;6.28;;;3.00;;
28166;SDS011;15455;53.376;-6.262;2023-05-25T05:15:21;7.15;;;2.25;;
28166;SDS011;15455;53.376;-6.262;2023-05-25T05:18:08;6.15;;;2.30;;
28166;SDS011;15455;53.376;-6.262;2023-05-25T05:20:54;6.72;;;2.63;;
28166;SDS011;15455;53.376;-6.262;2023-05-25T05:23:43;12.93;;;2.80;;
28166;SDS011;15455;53.376;-6.262;2023-05-25T05:26:29;13.65;;;3.22;;
28166;SDS011;15455;53.376;-6.262;2023-05-25T05:29:33;5.95;;;2.83;;
28166;SDS011;15455;53.376;-6.262;2023-05-25T05:32:18;4.82;;;2.88;;
28166;SDS011;15455;53.376;-6.262;2023-05-25T05:35:03;3.92;;;2.30;;
28166;SDS011;15455;53.376;-6.262;2023-05-25T05:37:57;5.82;;;2.30;;
28166;SDS011;15455;53.376;-6.262;2023-05-25T05:40:44;17.58;;;2.78;;
28166;SDS011;15455;53.376;-6.262;2023-05-25T05:43:29;9.50;;;2.95;;
28166;SDS011;15455;53.376;-6.262;2023-05-25T05:46:15;4.40;;;2.60;;
28166;SDS011;15455;53.376;-6.262;2023-05-25T05:49:01;9.65;;;2.85;;
28166;SDS011;15455;53.376;-6.262;2023-05-25T05:51:47;9.95;;;2.70;;
28166;SDS011;15455;53.376;-6.262;2023-05-25T05:54:32;5.97;;;2.47;;
28166;SDS011;15455;53.376;-6.262;2023-05-25T05:57:23;5.68;;;2.83;;
28166;SDS011;15455;53.376;-6.262;2023-05-25T06:00:08;3.90;;;2.10;;
28166;SDS011;15455;53.376;-6.262;2023-05-25T06:05:47;7.07;;;2.88;;
28166;SDS011;15455;53.376;-6.262;2023-05-25T06:08:35;3.63;;;1.90;;
28166;SDS011;15455;53.376;-6.262;2023-05-25T06:11:21;8.25;;;2.95;;
28166;SDS011;15455;53.376;-6.262;2023-05-25T06:14:07;9.18;;;2.60;;
28166;SDS011;15455;53.376;-6.262;2023-05-25T06:16:53;10.75;;;3.08;;
28166;SDS011;15455;53.376;-6.262;2023-05-25T06:19:41;9.18;;;2.97;;
28166;SDS011;15455;53.376;-6.262;2023-05-25T06:22:26;8.80;;;2.83;;
28166;SDS011;15455;53.376;-6.262;2023-05-25T06:25:14;6.05;;;2.55;;
28166;SDS011;15455;53.376;-6.262;2023-05-25T06:28:01;9.85;;;3.13;;
28166;SDS011;15455;53.376;-6.262;2023-05-25T06:30:46;13.30;;;3.10;;
28166;SDS011;15455;53.376;-6.262;2023-05-25T06:33:32;13.02;;;3.47;;
28166;SDS011;15455;53.376;-6.262;2023-05-25T06:36:17;9.98;;;2.95;;
28166;SDS011;15455;53.376;-6.262;2023-05-25T06:39:03;12.80;;;3.13;;
28166;SDS011;15455;53.376;-6.262;2023-05-25T06:41:48;9.95;;;3.08;;
28166;SDS011;15455;53.376;-6.262;2023-05-25T06:44:44;14.18;;;2.42;;
28166;SDS011;15455;53.376;-6.262;2023-05-25T06:47:29;10.23;;;2.72;;
28166;SDS011;15455;53.376;-6.262;2023-05-25T06:50:15;7.45;;;2.58;;
28166;SDS011;15455;53.376;-6.262;2023-05-25T06:53:02;17.88;;;3.13;;
28166;SDS011;15455;53.376;-6.262;2023-05-25T06:55:48;15.10;;;2.88;;
28166;SDS011;15455;53.376;-6.262;2023-05-25T06:58:33;7.05;;;2.85;;
28166;SDS011;15455;53.376;-6.262;2023-05-25T07:01:19;10.45;;;3.25;;
28166;SDS011;15455;53.376;-6.262;2023-05-25T07:04:04;13.30;;;2.55;;
28166;SDS011;15455;53.376;-6.262;2023-05-25T07:06:50;7.03;;;2.45;;
28166;SDS011;15455;53.376;-6.262;2023-05-25T07:09:36;11.45;;;2.58;;
28166;SDS011;15455;53.376;-6.262;2023-05-25T07:12:22;12.85;;;3.33;;
28166;SDS011;15455;53.376;-6.262;2023-05-25T07:15:08;16.92;;;2.72;;
28166;SDS011;15455;53.376;-6.262;2023-05-25T07:17:54;7.57;;;2.03;;
28166;SDS011;15455;53.376;-6.262;2023-05-25T07:20:41;13.85;;;2.35;;
28166;SDS011;15455;53.376;-6.262;2023-05-25T07:23:28;9.60;;;2.33;;
28166;SDS011;15455;53.376;-6.262;2023-05-25T07:26:13;6.05;;;2.58;;
28166;SDS011;15455;53.376;-6.262;2023-05-25T07:28:59;6.70;;;2.45;;
28166;SDS011;15455;53.376;-6.262;2023-05-25T07:31:45;15.15;;;2.58;;
28166;SDS011;15455;53.376;-6.262;2023-05-25T07:34:31;14.02;;;2.95;;
28166;SDS011;15455;53.376;-6.262;2023-05-25T07:37:18;7.63;;;2.08;;
28166;SDS011;15455;53.376;-6.262;2023-05-25T07:40:04;8.43;;;2.72;;
28166;SDS011;15455;53.376;-6.262;2023-05-25T07:42:50;18.52;;;3.13;;
28166;SDS011;15455;53.376;-6.262;2023-05-25T07:45:35;12.70;;;2.35;;
28166;SDS011;15455;53.376;-6.262;2023-05-25T07:48:21;8.45;;;2.15;;
28166;SDS011;15455;53.376;-6.262;2023-05-25T07:51:06;15.32;;;2.78;;
28166;SDS011;15455;53.376;-6.262;2023-05-25T07:53:52;9.40;;;2.15;;
28166;SDS011;15455;53.376;-6.262;2023-05-25T07:56:39;14.65;;;2.10;;
28166;SDS011;15455;53.376;-6.262;2023-05-25T07:59:25;10.32;;;2.13;;
28166;SDS011;15455;53.376;-6.262;2023-05-25T08:02:10;10.23;;;2.72;;
28166;SDS011;15455;53.376;-6.262;2023-05-25T08:04:55;12.77;;;2.35;;
28166;SDS011;15455;53.376;-6.262;2023-05-25T08:07:41;9.77;;;2.25;;
28166;SDS011;15455;53.376;-6.262;2023-05-25T08:10:27;16.77;;;2.85;;
28166;SDS011;15455;53.376;-6.262;2023-05-25T08:13:16;19.80;;;2.42;;
28166;SDS011;15455;53.376;-6.262;2023-05-25T08:16:01;12.60;;;2.97;;
28166;SDS011;15455;53.376;-6.262;2023-05-25T08:18:47;6.30;;;2.42;;
28166;SDS011;15455;53.376;-6.262;2023-05-25T08:21:32;15.05;;;2.60;;
28166;SDS011;15455;53.376;-6.262;2023-05-25T08:24:19;11.93;;;2.30;;
28166;SDS011;15455;53.376;-6.262;2023-05-25T08:27:04;9.15;;;2.53;;
28166;SDS011;15455;53.376;-6.262;2023-05-25T08:29:50;4.18;;;1.90;;
28166;SDS011;15455;53.376;-6.262;2023-05-25T08:32:36;10.02;;;1.75;;
28166;SDS011;15455;53.376;-6.262;2023-05-25T08:35:21;9.05;;;2.10;;
28166;SDS011;15455;53.376;-6.262;2023-05-25T08:38:07;8.60;;;2.67;;
28166;SDS011;15455;53.376;-6.262;2023-05-25T08:44:08;7.75;;;1.58;;
28166;SDS011;15455;53.376;-6.262;2023-05-25T08:46:55;10.60;;;2.38;;
28166;SDS011;15455;53.376;-6.262;2023-05-25T08:49:41;11.90;;;2.25;;
28166;SDS011;15455;53.376;-6.262;2023-05-25T08:52:29;6.93;;;1.98;;
28166;SDS011;15455;53.376;-6.262;2023-05-25T08:55:18;8.05;;;1.77;;
28166;SDS011;15455;53.376;-6.262;2023-05-25T08:58:09;4.53;;;1.77;;
28166;SDS011;15455;53.376;-6.262;2023-05-25T09:01:01;9.45;;;2.13;;
28166;SDS011;15455;53.376;-6.262;2023-05-25T09:03:51;5.50;;;1.85;;
28166;SDS011;15455;53.376;-6.262;2023-05-25T09:06:39;8.25;;;1.83;;
28166;SDS011;15455;53.376;-6.262;2023-05-25T09:09:25;10.38;;;2.60;;
28166;SDS011;15455;53.376;-6.262;2023-05-25T09:12:11;11.98;;;2.67;;
28166;SDS011;15455;53.376;-6.262;2023-05-25T09:14:58;14.20;;;2.58;;
28166;SDS011;15455;53.376;-6.262;2023-05-25T09:17:43;15.77;;;2.40;;
28166;SDS011;15455;53.376;-6.262;2023-05-25T09:20:29;10.38;;;2.15;;
28166;SDS011;15455;53.376;-6.262;2023-05-25T09:23:16;10.90;;;1.92;;
28166;SDS011;15455;53.376;-6.262;2023-05-25T09:26:01;10.43;;;2.35;;
28166;SDS011;15455;53.376;-6.262;2023-05-25T09:28:47;8.45;;;2.03;;
28166;SDS011;15455;53.376;-6.262;2023-05-25T09:31:33;11.25;;;2.08;;
28166;SDS011;15455;53.376;-6.262;2023-05-25T09:34:19;10.15;;;1.92;;
28166;SDS011;15455;53.376;-6.262;2023-05-25T09:37:11;12.95;;;2.20;;
28166;SDS011;15455;53.376;-6.262;2023-05-25T09:39:59;11.30;;;2.13;;
28166;SDS011;15455;53.376;-6.262;2023-05-25T09:42:44;7.82;;;1.73;;
28166;SDS011;15455;53.376;-6.262;2023-05-25T09:45:30;8.93;;;1.88;;
28166;SDS011;15455;53.376;-6.262;2023-05-25T09:48:16;8.10;;;1.83;;
28166;SDS011;15455;53.376;-6.262;2023-05-25T09:51:02;5.45;;;1.52;;
28166;SDS011;15455;53.376;-6.262;2023-05-25T09:53:47;8.55;;;1.88;;
28166;SDS011;15455;53.376;-6.262;2023-05-25T09:56:33;6.72;;;1.90;;
28166;SDS011;15455;53.376;-6.262;2023-05-25T09:59:20;6.43;;;1.70;;
28166;SDS011;15455;53.376;-6.262;2023-05-25T10:02:07;11.75;;;1.70;;
28166;SDS011;15455;53.376;-6.262;2023-05-25T10:04:52;12.32;;;2.03;;
28166;SDS011;15455;53.376;-6.262;2023-05-25T10:07:38;8.00;;;1.63;;
28166;SDS011;15455;53.376;-6.262;2023-05-25T10:10:25;8.85;;;1.95;;
28166;SDS011;15455;53.376;-6.262;2023-05-25T10:13:12;6.97;;;1.85;;
28166;SDS011;15455;53.376;-6.262;2023-05-25T10:16:00;7.35;;;1.70;;
28166;SDS011;15455;53.376;-6.262;2023-05-25T10:18:47;7.45;;;1.65;;
28166;SDS011;15455;53.376;-6.262;2023-05-25T10:21:38;7.57;;;1.90;;
28166;SDS011;15455;53.376;-6.262;2023-05-25T10:25:01;3.85;;;1.25;;
28166;SDS011;15455;53.376;-6.262;2023-05-25T10:30:48;7.80;;;1.45;;
28166;SDS011;15455;53.376;-6.262;2023-05-25T10:33:35;10.05;;;2.15;;
28166;SDS011;15455;53.376;-6.262;2023-05-25T10:36:21;8.38;;;1.92;;
28166;SDS011;15455;53.376;-6.262;2023-05-25T10:39:09;4.78;;;1.08;;
28166;SDS011;15455;53.376;-6.262;2023-05-25T10:41:55;8.75;;;1.30;;
28166;SDS011;15455;53.376;-6.262;2023-05-25T10:44:41;13.70;;;1.45;;
28166;SDS011;15455;53.376;-6.262;2023-05-25T10:47:26;6.70;;;1.88;;
28166;SDS011;15455;53.376;-6.262;2023-05-25T10:50:19;6.55;;;1.38;;
28166;SDS011;15455;53.376;-6.262;2023-05-25T10:53:07;5.00;;;1.45;;
28166;SDS011;15455;53.376;-6.262;2023-05-25T10:58:46;8.10;;;1.70;;
28166;SDS011;15455;53.376;-6.262;2023-05-25T11:01:32;8.57;;;1.65;;
28166;SDS011;15455;53.376;-6.262;2023-05-25T11:04:35;4.72;;;1.20;;
28166;SDS011;15455;53.376;-6.262;2023-05-25T11:07:22;4.15;;;1.10;;
28166;SDS011;15455;53.376;-6.262;2023-05-25T11:10:07;3.83;;;1.25;;
28166;SDS011;15455;53.376;-6.262;2023-05-25T11:12:52;5.25;;;1.20;;
28166;SDS011;15455;53.376;-6.262;2023-05-25T11:15:38;6.47;;;1.70;;
28166;SDS011;15455;53.376;-6.262;2023-05-25T11:18:23;6.60;;;1.67;;
28166;SDS011;15455;53.376;-6.262;2023-05-25T11:24:10;4.03;;;1.80;;
28166;SDS011;15455;53.376;-6.262;2023-05-25T11:26:58;7.80;;;1.65;;
28166;SDS011;15455;53.376;-6.262;2023-05-25T11:29:47;7.75;;;1.80;;
28166;SDS011;15455;53.376;-6.262;2023-05-25T11:32:34;4.00;;;1.52;;
28166;SDS011;15455;53.376;-6.262;2023-05-25T11:35:24;6.10;;;1.63;;
28166;SDS011;15455;53.376;-6.262;2023-05-25T11:38:10;4.97;;;1.20;;
28166;SDS011;15455;53.376;-6.262;2023-05-25T11:40:56;7.38;;;1.50;;
28166;SDS011;15455;53.376;-6.262;2023-05-25T11:43:43;6.65;;;1.60;;
28166;SDS011;15455;53.376;-6.262;2023-05-25T11:46:30;2.70;;;1.27;;
28166;SDS011;15455;53.376;-6.262;2023-05-25T11:49:19;5.22;;;1.55;;
28166;SDS011;15455;53.376;-6.262;2023-05-25T11:52:06;3.60;;;1.30;;
28166;SDS011;15455;53.376;-6.262;2023-05-25T11:54:52;8.77;;;1.75;;
28166;SDS011;15455;53.376;-6.262;2023-05-25T11:57:37;3.40;;;1.20;;
28166;SDS011;15455;53.376;-6.262;2023-05-25T12:00:25;4.53;;;1.17;;
28166;SDS011;15455;53.376;-6.262;2023-05-25T12:03:30;4.95;;;1.67;;
28166;SDS011;15455;53.376;-6.262;2023-05-25T12:06:22;7.85;;;1.77;;
28166;SDS011;15455;53.376;-6.262;2023-05-25T12:09:19;2.70;;;1.20;;
28166;SDS011;15455;53.376;-6.262;2023-05-25T12:12:08;5.70;;;1.23;;
28166;SDS011;15455;53.376;-6.262;2023-05-25T12:14:53;6.97;;;1.55;;
28166;SDS011;15455;53.376;-6.262;2023-05-25T12:17:41;4.82;;;1.83;;
28166;SDS011;15455;53.376;-6.262;2023-05-25T12:20:27;5.13;;;1.15;;
28166;SDS011;15455;53.376;-6.262;2023-05-25T12:23:13;4.68;;;1.50;;
28166;SDS011;15455;53.376;-6.262;2023-05-25T12:26:09;4.95;;;1.70;;
28166;SDS011;15455;53.376;-6.262;2023-05-25T12:28:59;6.88;;;1.15;;
28166;SDS011;15455;53.376;-6.262;2023-05-25T12:31:48;2.47;;;1.13;;
28166;SDS011;15455;53.376;-6.262;2023-05-25T12:34:33;3.97;;;1.17;;
28166;SDS011;15455;53.376;-6.262;2023-05-25T12:37:20;11.63;;;1.50;;
28166;SDS011;15455;53.376;-6.262;2023-05-25T12:40:19;3.47;;;1.25;;
28166;SDS011;15455;53.376;-6.262;2023-05-25T12:43:05;3.20;;;1.05;;
28166;SDS011;15455;53.376;-6.262;2023-05-25T12:45:51;3.38;;;1.33;;
28166;SDS011;15455;53.376;-6.262;2023-05-25T12:48:36;3.38;;;1.13;;
28166;SDS011;15455;53.376;-6.262;2023-05-25T12:51:21;3.42;;;1.17;;
28166;SDS011;15455;53.376;-6.262;2023-05-25T12:54:07;4.47;;;1.25;;
28166;SDS011;15455;53.376;-6.262;2023-05-25T12:56:53;16.85;;;1.30;;
28166;SDS011;15455;53.376;-6.262;2023-05-25T12:59:41;5.18;;;1.67;;
28166;SDS011;15455;53.376;-6.262;2023-05-25T13:02:30;5.28;;;1.02;;
28166;SDS011;15455;53.376;-6.262;2023-05-25T13:05:20;6.05;;;1.25;;
28166;SDS011;15455;53.376;-6.262;2023-05-25T13:08:07;7.43;;;1.77;;
28166;SDS011;15455;53.376;-6.262;2023-05-25T13:10:52;2.80;;;1.10;;
28166;SDS011;15455;53.376;-6.262;2023-05-25T13:13:38;3.17;;;1.17;;
28166;SDS011;15455;53.376;-6.262;2023-05-25T13:16:23;5.57;;;1.27;;
28166;SDS011;15455;53.376;-6.262;2023-05-25T13:19:10;5.72;;;1.58;;
28166;SDS011;15455;53.376;-6.262;2023-05-25T13:21:55;6.75;;;1.60;;
28166;SDS011;15455;53.376;-6.262;2023-05-25T13:24:41;4.55;;;1.20;;
28166;SDS011;15455;53.376;-6.262;2023-05-25T13:27:26;5.82;;;1.30;;
28166;SDS011;15455;53.376;-6.262;2023-05-25T13:30:12;8.05;;;1.45;;
28166;SDS011;15455;53.376;-6.262;2023-05-25T13:32:58;8.63;;;2.03;;
28166;SDS011;15455;53.376;-6.262;2023-05-25T13:35:44;15.15;;;2.38;;
28166;SDS011;15455;53.376;-6.262;2023-05-25T13:38:41;8.02;;;1.88;;
28166;SDS011;15455;53.376;-6.262;2023-05-25T13:41:27;9.43;;;2.03;;
28166;SDS011;15455;53.376;-6.262;2023-05-25T13:44:12;9.48;;;2.65;;
28166;SDS011;15455;53.376;-6.262;2023-05-25T13:47:01;10.07;;;2.38;;
28166;SDS011;15455;53.376;-6.262;2023-05-25T13:49:47;13.70;;;2.60;;
28166;SDS011;15455;53.376;-6.262;2023-05-25T13:52:32;8.48;;;1.75;;
28166;SDS011;15455;53.376;-6.262;2023-05-25T13:55:18;11.77;;;2.17;;
28166;SDS011;15455;53.376;-6.262;2023-05-25T13:58:04;16.05;;;3.35;;
28166;SDS011;15455;53.376;-6.262;2023-05-25T14:00:49;11.68;;;2.88;;
28166;SDS011;15455;53.376;-6.262;2023-05-25T14:03:35;9.73;;;2.25;;
28166;SDS011;15455;53.376;-6.262;2023-05-25T14:06:21;9.70;;;2.15;;
28166;SDS011;15455;53.376;-6.262;2023-05-25T14:09:07;10.38;;;2.25;;
28166;SDS011;15455;53.376;-6.262;2023-05-25T14:11:54;9.55;;;2.63;;
28166;SDS011;15455;53.376;-6.262;2023-05-25T14:14:40;9.10;;;2.25;;
28166;SDS011;15455;53.376;-6.262;2023-05-25T14:17:25;11.90;;;2.83;;
28166;SDS011;15455;53.376;-6.262;2023-05-25T14:20:10;9.55;;;2.05;;
28166;SDS011;15455;53.376;-6.262;2023-05-25T14:23:00;12.05;;;3.05;;
28166;SDS011;15455;53.376;-6.262;2023-05-25T14:25:46;14.48;;;3.05;;
28166;SDS011;15455;53.376;-6.262;2023-05-25T14:28:32;11.95;;;2.30;;
28166;SDS011;15455;53.376;-6.262;2023-05-25T14:31:18;12.32;;;2.70;;
28166;SDS011;15455;53.376;-6.262;2023-05-25T14:34:03;12.80;;;2.90;;
28166;SDS011;15455;53.376;-6.262;2023-05-25T14:36:49;7.38;;;2.17;;
28166;SDS011;15455;53.376;-6.262;2023-05-25T14:39:34;9.82;;;2.78;;
28166;SDS011;15455;53.376;-6.262;2023-05-25T14:42:23;12.57;;;2.70;;
28166;SDS011;15455;53.376;-6.262;2023-05-25T14:45:08;9.23;;;2.63;;
28166;SDS011;15455;53.376;-6.262;2023-05-25T14:47:56;8.98;;;2.15;;
28166;SDS011;15455;53.376;-6.262;2023-05-25T14:50:59;10.10;;;2.50;;
28166;SDS011;15455;53.376;-6.262;2023-05-25T14:53:46;9.25;;;2.40;;
28166;SDS011;15455;53.376;-6.262;2023-05-25T14:56:32;10.93;;;2.58;;
28166;SDS011;15455;53.376;-6.262;2023-05-25T14:59:18;11.25;;;2.30;;
28166;SDS011;15455;53.376;-6.262;2023-05-25T15:02:03;12.63;;;2.85;;
28166;SDS011;15455;53.376;-6.262;2023-05-25T15:04:49;10.93;;;2.78;;
28166;SDS011;15455;53.376;-6.262;2023-05-25T15:07:34;10.95;;;2.38;;
28166;SDS011;15455;53.376;-6.262;2023-05-25T15:10:20;11.63;;;2.90;;
28166;SDS011;15455;53.376;-6.262;2023-05-25T15:13:05;5.60;;;2.15;;
28166;SDS011;15455;53.376;-6.262;2023-05-25T15:15:51;10.07;;;2.60;;
28166;SDS011;15455;53.376;-6.262;2023-05-25T15:18:40;15.32;;;3.13;;
28166;SDS011;15455;53.376;-6.262;2023-05-25T15:21:26;14.07;;;2.60;;
28166;SDS011;15455;53.376;-6.262;2023-05-25T15:24:11;13.82;;;3.55;;
28166;SDS011;15455;53.376;-6.262;2023-05-25T15:27:00;13.02;;;2.85;;
28166;SDS011;15455;53.376;-6.262;2023-05-25T15:29:46;7.18;;;2.28;;
28166;SDS011;15455;53.376;-6.262;2023-05-25T15:32:32;10.45;;;2.13;;
28166;SDS011;15455;53.376;-6.262;2023-05-25T15:35:18;14.02;;;2.63;;
28166;SDS011;15455;53.376;-6.262;2023-05-25T15:38:03;9.75;;;2.38;;
28166;SDS011;15455;53.376;-6.262;2023-05-25T15:40:49;6.15;;;2.15;;
28166;SDS011;15455;53.376;-6.262;2023-05-25T15:43:34;6.53;;;2.33;;
28166;SDS011;15455;53.376;-6.262;2023-05-25T15:46:20;7.45;;;2.25;;
28166;SDS011;15455;53.376;-6.262;2023-05-25T15:49:06;13.88;;;2.58;;
28166;SDS011;15455;53.376;-6.262;2023-05-25T15:51:55;10.18;;;2.38;;
28166;SDS011;15455;53.376;-6.262;2023-05-25T15:54:41;10.38;;;1.80;;
28166;SDS011;15455;53.376;-6.262;2023-05-25T15:57:26;7.75;;;2.47;;
28166;SDS011;15455;53.376;-6.262;2023-05-25T16:00:12;11.65;;;2.20;;
28166;SDS011;15455;53.376;-6.262;2023-05-25T16:02:58;8.73;;;2.03;;
28166;SDS011;15455;53.376;-6.262;2023-05-25T16:05:44;10.30;;;2.20;;
28166;SDS011;15455;53.376;-6.262;2023-05-25T16:08:30;13.25;;;2.63;;
28166;SDS011;15455;53.376;-6.262;2023-05-25T16:11:15;7.72;;;2.20;;
28166;SDS011;15455;53.376;-6.262;2023-05-25T16:14:00;11.43;;;1.90;;
28166;SDS011;15455;53.376;-6.262;2023-05-25T16:16:46;9.02;;;1.80;;
28166;SDS011;15455;53.376;-6.262;2023-05-25T16:19:31;11.25;;;2.35;;
28166;SDS011;15455;53.376;-6.262;2023-05-25T16:22:17;10.32;;;2.03;;
28166;SDS011;15455;53.376;-6.262;2023-05-25T16:25:03;10.20;;;2.67;;
28166;SDS011;15455;53.376;-6.262;2023-05-25T16:27:49;11.52;;;2.60;;
28166;SDS011;15455;53.376;-6.262;2023-05-25T16:30:34;11.35;;;2.28;;
28166;SDS011;15455;53.376;-6.262;2023-05-25T16:33:20;9.00;;;2.33;;
28166;SDS011;15455;53.376;-6.262;2023-05-25T16:36:05;11.57;;;2.25;;
28166;SDS011;15455;53.376;-6.262;2023-05-25T16:38:51;10.77;;;2.53;;
28166;SDS011;15455;53.376;-6.262;2023-05-25T16:41:36;9.50;;;1.63;;
28166;SDS011;15455;53.376;-6.262;2023-05-25T16:44:22;13.45;;;3.08;;
28166;SDS011;15455;53.376;-6.262;2023-05-25T16:47:08;17.23;;;2.90;;
28166;SDS011;15455;53.376;-6.262;2023-05-25T16:49:53;14.75;;;3.70;;
28166;SDS011;15455;53.376;-6.262;2023-05-25T16:52:38;11.50;;;2.22;;
28166;SDS011;15455;53.376;-6.262;2023-05-25T16:55:25;15.15;;;3.33;;
28166;SDS011;15455;53.376;-6.262;2023-05-25T16:58:10;13.32;;;2.60;;